sensor_id;sensor_type;location;lat;lon;timestamp;temperature;humidity
16958;DHT22;8595;52.542;11.974;2023-04-24T00:02:02;13.70;99.90
16958;DHT22;8595;52.542;11.974;2023-04-24T00:04:29;13.60;99.90
16958;DHT22;8595;52.542;11.974;2023-04-24T00:06:57;13.50;99.90
16958;DHT22;8595;52.542;11.974;2023-04-24T00:09:25;13.50;99.90
16958;DHT22;8595;52.542;11.974;2023-04-24T00:11:52;13.50;99.90
16958;DHT22;8595;52.542;11.974;2023-04-24T00:14:22;13.50;99.90
16958;DHT22;8595;52.542;11.974;2023-04-24T00:16:49;13.40;99.90
16958;DHT22;8595;52.542;11.974;2023-04-24T00:19:16;13.40;99.90
16958;DHT22;8595;52.542;11.974;2023-04-24T00:21:42;13.20;99.90
16958;DHT22;8595;52.542;11.974;2023-04-24T00:24:09;13.10;99.90
16958;DHT22;8595;52.542;11.974;2023-04-24T00:26:36;13.00;99.90
16958;DHT22;8595;52.542;11.974;2023-04-24T00:29:03;13.00;99.90
16958;DHT22;8595;52.542;11.974;2023-04-24T00:31:31;13.00;99.90
16958;DHT22;8595;52.542;11.974;2023-04-24T00:34:00;12.90;99.90
16958;DHT22;8595;52.542;11.974;2023-04-24T00:36:26;12.90;99.90
16958;DHT22;8595;52.542;11.974;2023-04-24T00:38:53;12.90;99.90
16958;DHT22;8595;52.542;11.974;2023-04-24T00:41:20;12.90;99.90
16958;DHT22;8595;52.542;11.974;2023-04-24T00:43:48;12.90;99.90
16958;DHT22;8595;52.542;11.974;2023-04-24T00:46:16;12.80;99.90
16958;DHT22;8595;52.542;11.974;2023-04-24T00:48:44;12.90;99.90
16958;DHT22;8595;52.542;11.974;2023-04-24T00:51:11;13.00;99.90
16958;DHT22;8595;52.542;11.974;2023-04-24T00:53:38;13.00;99.90
16958;DHT22;8595;52.542;11.974;2023-04-24T00:56:09;12.90;99.90
16958;DHT22;8595;52.542;11.974;2023-04-24T00:58:38;13.00;99.90
16958;DHT22;8595;52.542;11.974;2023-04-24T01:01:06;12.90;99.90
16958;DHT22;8595;52.542;11.974;2023-04-24T01:03:33;12.90;99.90
16958;DHT22;8595;52.542;11.974;2023-04-24T01:06:04;12.90;99.90
16958;DHT22;8595;52.542;11.974;2023-04-24T01:08:31;12.90;99.90
16958;DHT22;8595;52.542;11.974;2023-04-24T01:10:59;12.90;99.90
16958;DHT22;8595;52.542;11.974;2023-04-24T01:13:29;12.90;99.90
16958;DHT22;8595;52.542;11.974;2023-04-24T01:15:57;12.90;99.90
16958;DHT22;8595;52.542;11.974;2023-04-24T01:18:24;12.90;99.90
16958;DHT22;8595;52.542;11.974;2023-04-24T01:20:54;13.00;99.90
16958;DHT22;8595;52.542;11.974;2023-04-24T01:23:25;13.00;99.90
16958;DHT22;8595;52.542;11.974;2023-04-24T01:25:54;13.10;99.90
16958;DHT22;8595;52.542;11.974;2023-04-24T01:28:22;13.10;99.90
16958;DHT22;8595;52.542;11.974;2023-04-24T01:30:49;13.20;99.90
16958;DHT22;8595;52.542;11.974;2023-04-24T01:33:16;13.20;99.90
16958;DHT22;8595;52.542;11.974;2023-04-24T01:35:43;13.30;99.90
16958;DHT22;8595;52.542;11.974;2023-04-24T01:38:10;13.40;99.90
16958;DHT22;8595;52.542;11.974;2023-04-24T01:40:38;13.40;99.90
16958;DHT22;8595;52.542;11.974;2023-04-24T01:43:05;13.50;99.90
16958;DHT22;8595;52.542;11.974;2023-04-24T01:45:32;13.50;99.90
16958;DHT22;8595;52.542;11.974;2023-04-24T01:48:00;13.50;99.90
16958;DHT22;8595;52.542;11.974;2023-04-24T01:50:27;13.50;99.90
16958;DHT22;8595;52.542;11.974;2023-04-24T01:52:54;13.40;99.90
16958;DHT22;8595;52.542;11.974;2023-04-24T01:55:21;13.40;99.90
16958;DHT22;8595;52.542;11.974;2023-04-24T01:57:50;13.40;99.90
16958;DHT22;8595;52.542;11.974;2023-04-24T02:00:18;13.40;99.90
16958;DHT22;8595;52.542;11.974;2023-04-24T02:02:45;13.40;99.90
16958;DHT22;8595;52.542;11.974;2023-04-24T02:05:12;13.40;99.90
16958;DHT22;8595;52.542;11.974;2023-04-24T02:07:39;13.40;99.90
16958;DHT22;8595;52.542;11.974;2023-04-24T02:10:07;13.20;99.90
16958;DHT22;8595;52.542;11.974;2023-04-24T02:12:33;13.20;99.90
16958;DHT22;8595;52.542;11.974;2023-04-24T02:15:02;13.20;99.90
16958;DHT22;8595;52.542;11.974;2023-04-24T02:17:29;13.10;99.90
16958;DHT22;8595;52.542;11.974;2023-04-24T02:19:56;13.00;99.90
16958;DHT22;8595;52.542;11.974;2023-04-24T02:22:24;13.10;99.90
16958;DHT22;8595;52.542;11.974;2023-04-24T02:24:50;13.10;99.90
16958;DHT22;8595;52.542;11.974;2023-04-24T02:27:17;13.20;99.90
16958;DHT22;8595;52.542;11.974;2023-04-24T02:29:44;13.20;99.90
16958;DHT22;8595;52.542;11.974;2023-04-24T02:32:13;13.20;99.90
16958;DHT22;8595;52.542;11.974;2023-04-24T02:34:41;13.20;99.90
16958;DHT22;8595;52.542;11.974;2023-04-24T02:37:07;13.30;99.90
16958;DHT22;8595;52.542;11.974;2023-04-24T02:39:35;13.30;99.90
16958;DHT22;8595;52.542;11.974;2023-04-24T02:42:03;13.40;99.90
16958;DHT22;8595;52.542;11.974;2023-04-24T02:44:29;13.40;99.90
16958;DHT22;8595;52.542;11.974;2023-04-24T02:46:56;13.40;99.90
16958;DHT22;8595;52.542;11.974;2023-04-24T02:49:25;13.50;99.90
16958;DHT22;8595;52.542;11.974;2023-04-24T02:51:53;13.50;99.90
16958;DHT22;8595;52.542;11.974;2023-04-24T02:54:20;13.50;99.90
16958;DHT22;8595;52.542;11.974;2023-04-24T02:56:47;13.40;99.90
16958;DHT22;8595;52.542;11.974;2023-04-24T02:59:13;13.30;99.90
16958;DHT22;8595;52.542;11.974;2023-04-24T03:01:41;13.40;99.90
16958;DHT22;8595;52.542;11.974;2023-04-24T03:04:08;13.30;99.90
16958;DHT22;8595;52.542;11.974;2023-04-24T03:06:37;13.30;99.90
16958;DHT22;8595;52.542;11.974;2023-04-24T03:09:04;13.30;99.90
16958;DHT22;8595;52.542;11.974;2023-04-24T03:11:32;13.30;99.90
16958;DHT22;8595;52.542;11.974;2023-04-24T03:13:58;13.20;99.90
16958;DHT22;8595;52.542;11.974;2023-04-24T03:16:25;13.20;99.90
16958;DHT22;8595;52.542;11.974;2023-04-24T03:18:52;13.20;99.90
16958;DHT22;8595;52.542;11.974;2023-04-24T03:21:18;13.10;99.90
16958;DHT22;8595;52.542;11.974;2023-04-24T03:23:47;13.10;99.90
16958;DHT22;8595;52.542;11.974;2023-04-24T03:26:13;13.00;99.90
16958;DHT22;8595;52.542;11.974;2023-04-24T03:28:40;13.10;99.90
16958;DHT22;8595;52.542;11.974;2023-04-24T03:31:07;13.00;99.90
16958;DHT22;8595;52.542;11.974;2023-04-24T03:33:33;13.00;99.90
16958;DHT22;8595;52.542;11.974;2023-04-24T03:36:01;12.90;99.90
16958;DHT22;8595;52.542;11.974;2023-04-24T03:38:28;12.80;99.90
16958;DHT22;8595;52.542;11.974;2023-04-24T03:40:56;12.70;99.90
16958;DHT22;8595;52.542;11.974;2023-04-24T03:43:22;12.70;99.90
16958;DHT22;8595;52.542;11.974;2023-04-24T03:45:49;12.70;99.90
16958;DHT22;8595;52.542;11.974;2023-04-24T03:48:17;12.70;99.90
16958;DHT22;8595;52.542;11.974;2023-04-24T03:50:45;12.70;99.90
16958;DHT22;8595;52.542;11.974;2023-04-24T03:53:12;12.60;99.90
16958;DHT22;8595;52.542;11.974;2023-04-24T03:55:38;12.60;99.90
16958;DHT22;8595;52.542;11.974;2023-04-24T03:58:06;12.60;99.90
16958;DHT22;8595;52.542;11.974;2023-04-24T04:00:34;12.50;99.90
16958;DHT22;8595;52.542;11.974;2023-04-24T04:03:02;12.60;99.90
16958;DHT22;8595;52.542;11.974;2023-04-24T04:05:29;12.50;99.90
16958;DHT22;8595;52.542;11.974;2023-04-24T04:07:56;12.40;99.90
16958;DHT22;8595;52.542;11.974;2023-04-24T04:10:23;12.30;99.90
16958;DHT22;8595;52.542;11.974;2023-04-24T04:12:49;12.30;99.90
16958;DHT22;8595;52.542;11.974;2023-04-24T04:15:17;12.30;99.90
16958;DHT22;8595;52.542;11.974;2023-04-24T04:17:44;12.30;99.90
16958;DHT22;8595;52.542;11.974;2023-04-24T04:20:12;12.20;99.90
16958;DHT22;8595;52.542;11.974;2023-04-24T04:22:39;12.10;99.90
16958;DHT22;8595;52.542;11.974;2023-04-24T04:25:06;12.10;99.90
16958;DHT22;8595;52.542;11.974;2023-04-24T04:27:34;12.10;99.90
16958;DHT22;8595;52.542;11.974;2023-04-24T04:30:01;12.00;99.90
16958;DHT22;8595;52.542;11.974;2023-04-24T04:32:31;12.00;99.90
16958;DHT22;8595;52.542;11.974;2023-04-24T04:34:58;12.10;99.90
16958;DHT22;8595;52.542;11.974;2023-04-24T04:37:28;12.00;99.90
16958;DHT22;8595;52.542;11.974;2023-04-24T04:39:56;12.00;99.90
16958;DHT22;8595;52.542;11.974;2023-04-24T04:42:23;12.00;99.90
16958;DHT22;8595;52.542;11.974;2023-04-24T04:44:50;12.00;99.90
16958;DHT22;8595;52.542;11.974;2023-04-24T04:47:21;11.90;99.90
16958;DHT22;8595;52.542;11.974;2023-04-24T04:49:49;11.80;99.90
16958;DHT22;8595;52.542;11.974;2023-04-24T04:52:17;11.80;99.90
16958;DHT22;8595;52.542;11.974;2023-04-24T04:54:43;11.60;99.90
16958;DHT22;8595;52.542;11.974;2023-04-24T04:57:11;11.60;99.90
16958;DHT22;8595;52.542;11.974;2023-04-24T04:59:38;11.70;99.90
16958;DHT22;8595;52.542;11.974;2023-04-24T05:02:06;11.60;99.90
16958;DHT22;8595;52.542;11.974;2023-04-24T05:04:34;11.60;99.90
16958;DHT22;8595;52.542;11.974;2023-04-24T05:07:02;11.60;99.90
16958;DHT22;8595;52.542;11.974;2023-04-24T05:09:29;11.70;99.90
16958;DHT22;8595;52.542;11.974;2023-04-24T05:11:57;11.80;99.90
16958;DHT22;8595;52.542;11.974;2023-04-24T05:14:23;11.90;99.90
16958;DHT22;8595;52.542;11.974;2023-04-24T05:16:50;11.90;99.90
16958;DHT22;8595;52.542;11.974;2023-04-24T05:19:17;12.00;99.90
16958;DHT22;8595;52.542;11.974;2023-04-24T05:21:44;12.00;99.90
16958;DHT22;8595;52.542;11.974;2023-04-24T05:24:12;12.10;99.90
16958;DHT22;8595;52.542;11.974;2023-04-24T05:26:40;12.20;99.90
16958;DHT22;8595;52.542;11.974;2023-04-24T05:29:07;12.30;99.90
16958;DHT22;8595;52.542;11.974;2023-04-24T05:31:34;12.30;99.90
16958;DHT22;8595;52.542;11.974;2023-04-24T05:34:01;12.40;99.90
16958;DHT22;8595;52.542;11.974;2023-04-24T05:36:28;12.50;99.90
16958;DHT22;8595;52.542;11.974;2023-04-24T05:38:55;12.50;99.90
16958;DHT22;8595;52.542;11.974;2023-04-24T05:41:23;12.50;99.90
16958;DHT22;8595;52.542;11.974;2023-04-24T05:43:56;12.60;99.90
16958;DHT22;8595;52.542;11.974;2023-04-24T05:46:38;12.50;99.90
16958;DHT22;8595;52.542;11.974;2023-04-24T05:49:08;12.70;99.90
16958;DHT22;8595;52.542;11.974;2023-04-24T05:51:36;12.80;99.90
16958;DHT22;8595;52.542;11.974;2023-04-24T05:54:04;12.90;99.90
16958;DHT22;8595;52.542;11.974;2023-04-24T05:56:33;13.00;99.90
16958;DHT22;8595;52.542;11.974;2023-04-24T05:58:59;13.20;99.90
16958;DHT22;8595;52.542;11.974;2023-04-24T06:01:26;13.10;99.90
16958;DHT22;8595;52.542;11.974;2023-04-24T06:03:53;13.20;99.90
16958;DHT22;8595;52.542;11.974;2023-04-24T06:06:20;13.20;99.90
16958;DHT22;8595;52.542;11.974;2023-04-24T06:08:48;13.40;99.90
16958;DHT22;8595;52.542;11.974;2023-04-24T06:11:15;13.50;99.90
16958;DHT22;8595;52.542;11.974;2023-04-24T06:13:43;13.50;99.90
16958;DHT22;8595;52.542;11.974;2023-04-24T06:16:10;13.50;99.90
16958;DHT22;8595;52.542;11.974;2023-04-24T06:18:37;13.70;99.90
16958;DHT22;8595;52.542;11.974;2023-04-24T06:21:04;13.80;99.90
16958;DHT22;8595;52.542;11.974;2023-04-24T06:23:31;13.90;99.90
16958;DHT22;8595;52.542;11.974;2023-04-24T06:25:59;14.00;99.90
16958;DHT22;8595;52.542;11.974;2023-04-24T06:28:26;13.90;99.90
16958;DHT22;8595;52.542;11.974;2023-04-24T06:30:54;13.90;99.90
16958;DHT22;8595;52.542;11.974;2023-04-24T06:33:21;14.00;99.90
16958;DHT22;8595;52.542;11.974;2023-04-24T06:35:48;14.00;99.90
16958;DHT22;8595;52.542;11.974;2023-04-24T06:38:15;14.00;99.90
16958;DHT22;8595;52.542;11.974;2023-04-24T06:40:43;14.10;99.90
16958;DHT22;8595;52.542;11.974;2023-04-24T06:43:12;14.10;99.90
16958;DHT22;8595;52.542;11.974;2023-04-24T06:45:42;14.10;99.90
16958;DHT22;8595;52.542;11.974;2023-04-24T06:48:11;14.20;99.90
16958;DHT22;8595;52.542;11.974;2023-04-24T06:50:37;14.30;99.90
16958;DHT22;8595;52.542;11.974;2023-04-24T06:53:06;14.40;99.90
16958;DHT22;8595;52.542;11.974;2023-04-24T06:55:33;14.30;99.90
16958;DHT22;8595;52.542;11.974;2023-04-24T06:58:02;14.30;99.90
16958;DHT22;8595;52.542;11.974;2023-04-24T07:00:28;14.40;99.90
16958;DHT22;8595;52.542;11.974;2023-04-24T07:02:55;14.50;99.90
16958;DHT22;8595;52.542;11.974;2023-04-24T07:05:24;14.50;99.90
16958;DHT22;8595;52.542;11.974;2023-04-24T07:07:50;14.70;99.90
16958;DHT22;8595;52.542;11.974;2023-04-24T07:10:18;14.70;99.90
16958;DHT22;8595;52.542;11.974;2023-04-24T07:12:45;14.80;99.90
16958;DHT22;8595;52.542;11.974;2023-04-24T07:15:15;14.70;99.90
16958;DHT22;8595;52.542;11.974;2023-04-24T07:17:42;14.70;99.90
16958;DHT22;8595;52.542;11.974;2023-04-24T07:20:10;14.70;99.90
16958;DHT22;8595;52.542;11.974;2023-04-24T07:22:38;14.90;99.90
16958;DHT22;8595;52.542;11.974;2023-04-24T07:25:06;15.10;99.90
16958;DHT22;8595;52.542;11.974;2023-04-24T07:27:35;15.20;99.90
16958;DHT22;8595;52.542;11.974;2023-04-24T07:30:02;15.40;99.90
16958;DHT22;8595;52.542;11.974;2023-04-24T07:32:29;15.30;99.90
16958;DHT22;8595;52.542;11.974;2023-04-24T07:35:00;15.40;99.90
16958;DHT22;8595;52.542;11.974;2023-04-24T07:37:28;15.40;99.90
16958;DHT22;8595;52.542;11.974;2023-04-24T07:39:57;15.40;99.90
16958;DHT22;8595;52.542;11.974;2023-04-24T07:42:23;15.40;99.90
16958;DHT22;8595;52.542;11.974;2023-04-24T07:44:50;15.30;99.90
16958;DHT22;8595;52.542;11.974;2023-04-24T07:47:18;15.40;99.90
16958;DHT22;8595;52.542;11.974;2023-04-24T07:49:45;15.40;99.90
16958;DHT22;8595;52.542;11.974;2023-04-24T07:52:12;15.50;99.90
16958;DHT22;8595;52.542;11.974;2023-04-24T07:54:39;15.80;99.90
16958;DHT22;8595;52.542;11.974;2023-04-24T07:57:08;16.00;99.90
16958;DHT22;8595;52.542;11.974;2023-04-24T07:59:35;16.00;99.90
16958;DHT22;8595;52.542;11.974;2023-04-24T08:02:01;16.10;99.90
16958;DHT22;8595;52.542;11.974;2023-04-24T08:04:29;16.10;99.90
16958;DHT22;8595;52.542;11.974;2023-04-24T08:06:57;16.20;99.90
16958;DHT22;8595;52.542;11.974;2023-04-24T08:09:23;16.20;99.90
16958;DHT22;8595;52.542;11.974;2023-04-24T08:11:50;16.50;99.90
16958;DHT22;8595;52.542;11.974;2023-04-24T08:14:20;16.50;99.90
16958;DHT22;8595;52.542;11.974;2023-04-24T08:16:47;16.50;99.90
16958;DHT22;8595;52.542;11.974;2023-04-24T08:19:13;16.40;99.90
16958;DHT22;8595;52.542;11.974;2023-04-24T08:21:40;16.40;99.90
16958;DHT22;8595;52.542;11.974;2023-04-24T08:24:07;16.50;99.90
16958;DHT22;8595;52.542;11.974;2023-04-24T08:26:34;16.50;99.90
16958;DHT22;8595;52.542;11.974;2023-04-24T08:29:01;16.30;99.90
16958;DHT22;8595;52.542;11.974;2023-04-24T08:31:30;16.40;99.90
16958;DHT22;8595;52.542;11.974;2023-04-24T08:33:56;16.60;99.90
16958;DHT22;8595;52.542;11.974;2023-04-24T08:36:23;16.40;99.90
16958;DHT22;8595;52.542;11.974;2023-04-24T08:38:51;16.60;99.90
16958;DHT22;8595;52.542;11.974;2023-04-24T08:41:18;16.60;99.90
16958;DHT22;8595;52.542;11.974;2023-04-24T08:43:46;16.30;99.90
16958;DHT22;8595;52.542;11.974;2023-04-24T08:46:13;16.30;99.90
16958;DHT22;8595;52.542;11.974;2023-04-24T08:48:45;16.20;99.90
16958;DHT22;8595;52.542;11.974;2023-04-24T08:51:12;16.20;99.90
16958;DHT22;8595;52.542;11.974;2023-04-24T08:53:40;16.40;99.90
16958;DHT22;8595;52.542;11.974;2023-04-24T08:56:07;16.80;99.90
16958;DHT22;8595;52.542;11.974;2023-04-24T08:58:33;16.60;99.90
16958;DHT22;8595;52.542;11.974;2023-04-24T09:01:02;16.30;99.90
16958;DHT22;8595;52.542;11.974;2023-04-24T09:03:29;16.20;99.90
16958;DHT22;8595;52.542;11.974;2023-04-24T09:05:59;16.10;99.90
16958;DHT22;8595;52.542;11.974;2023-04-24T09:08:28;16.20;99.90
16958;DHT22;8595;52.542;11.974;2023-04-24T09:10:56;16.30;99.90
16958;DHT22;8595;52.542;11.974;2023-04-24T09:13:24;16.40;99.90
16958;DHT22;8595;52.542;11.974;2023-04-24T09:15:51;16.40;99.90
16958;DHT22;8595;52.542;11.974;2023-04-24T09:18:19;16.40;99.90
16958;DHT22;8595;52.542;11.974;2023-04-24T09:21:03;16.50;99.90
16958;DHT22;8595;52.542;11.974;2023-04-24T09:23:31;16.50;99.90
16958;DHT22;8595;52.542;11.974;2023-04-24T09:25:59;16.60;99.90
16958;DHT22;8595;52.542;11.974;2023-04-24T09:28:27;16.80;99.90
16958;DHT22;8595;52.542;11.974;2023-04-24T09:31:06;17.20;99.90
16958;DHT22;8595;52.542;11.974;2023-04-24T09:33:34;17.40;99.90
16958;DHT22;8595;52.542;11.974;2023-04-24T09:36:03;17.70;99.90
16958;DHT22;8595;52.542;11.974;2023-04-24T09:38:32;18.20;99.90
16958;DHT22;8595;52.542;11.974;2023-04-24T09:41:00;18.50;99.90
16958;DHT22;8595;52.542;11.974;2023-04-24T09:43:29;18.50;99.90
16958;DHT22;8595;52.542;11.974;2023-04-24T09:45:58;18.30;99.90
16958;DHT22;8595;52.542;11.974;2023-04-24T09:48:32;18.10;99.90
16958;DHT22;8595;52.542;11.974;2023-04-24T09:51:01;18.40;99.90
16958;DHT22;8595;52.542;11.974;2023-04-24T09:53:30;18.70;99.90
16958;DHT22;8595;52.542;11.974;2023-04-24T09:56:02;19.10;99.90
16958;DHT22;8595;52.542;11.974;2023-04-24T09:58:32;19.30;99.90
16958;DHT22;8595;52.542;11.974;2023-04-24T10:01:04;19.20;99.90
16958;DHT22;8595;52.542;11.974;2023-04-24T10:03:31;18.80;99.90
16958;DHT22;8595;52.542;11.974;2023-04-24T10:05:58;18.10;99.90
16958;DHT22;8595;52.542;11.974;2023-04-24T10:08:25;17.60;99.90
16958;DHT22;8595;52.542;11.974;2023-04-24T10:10:54;17.20;99.90
16958;DHT22;8595;52.542;11.974;2023-04-24T10:13:21;16.60;99.90
16958;DHT22;8595;52.542;11.974;2023-04-24T10:15:48;16.00;99.90
16958;DHT22;8595;52.542;11.974;2023-04-24T10:18:15;15.30;99.90
16958;DHT22;8595;52.542;11.974;2023-04-24T10:20:42;14.60;99.90
16958;DHT22;8595;52.542;11.974;2023-04-24T10:23:10;14.20;99.90
16958;DHT22;8595;52.542;11.974;2023-04-24T10:25:37;13.90;99.90
16958;DHT22;8595;52.542;11.974;2023-04-24T10:28:06;13.80;99.90
16958;DHT22;8595;52.542;11.974;2023-04-24T10:30:34;13.80;99.90
16958;DHT22;8595;52.542;11.974;2023-04-24T10:33:02;13.80;99.90
16958;DHT22;8595;52.542;11.974;2023-04-24T10:35:31;13.70;99.90
16958;DHT22;8595;52.542;11.974;2023-04-24T10:38:01;14.00;99.90
16958;DHT22;8595;52.542;11.974;2023-04-24T10:40:31;14.30;99.90
16958;DHT22;8595;52.542;11.974;2023-04-24T10:42:58;14.50;99.90
16958;DHT22;8595;52.542;11.974;2023-04-24T10:45:27;14.80;99.90
16958;DHT22;8595;52.542;11.974;2023-04-24T10:47:57;15.50;99.90
16958;DHT22;8595;52.542;11.974;2023-04-24T10:50:27;16.20;99.90
16958;DHT22;8595;52.542;11.974;2023-04-24T10:53:05;16.50;99.90
16958;DHT22;8595;52.542;11.974;2023-04-24T10:55:46;16.30;99.90
16958;DHT22;8595;52.542;11.974;2023-04-24T10:58:13;17.10;99.90
16958;DHT22;8595;52.542;11.974;2023-04-24T11:00:42;17.40;99.90
16958;DHT22;8595;52.542;11.974;2023-04-24T11:03:24;17.90;99.90
16958;DHT22;8595;52.542;11.974;2023-04-24T11:05:57;17.70;99.90
16958;DHT22;8595;52.542;11.974;2023-04-24T11:08:32;16.70;99.90
16958;DHT22;8595;52.542;11.974;2023-04-24T11:11:01;16.30;99.90
16958;DHT22;8595;52.542;11.974;2023-04-24T11:14:00;16.70;99.90
16958;DHT22;8595;52.542;11.974;2023-04-24T11:16:30;16.60;99.90
16958;DHT22;8595;52.542;11.974;2023-04-24T11:19:03;16.80;99.90
16958;DHT22;8595;52.542;11.974;2023-04-24T11:21:39;16.80;99.90
16958;DHT22;8595;52.542;11.974;2023-04-24T11:24:29;16.70;99.90
16958;DHT22;8595;52.542;11.974;2023-04-24T11:26:58;16.90;99.90
16958;DHT22;8595;52.542;11.974;2023-04-24T11:29:40;17.20;99.90
16958;DHT22;8595;52.542;11.974;2023-04-24T11:32:23;17.40;99.90
16958;DHT22;8595;52.542;11.974;2023-04-24T11:34:51;17.40;99.90
16958;DHT22;8595;52.542;11.974;2023-04-24T11:37:18;17.40;99.90
16958;DHT22;8595;52.542;11.974;2023-04-24T11:39:46;17.70;99.90
16958;DHT22;8595;52.542;11.974;2023-04-24T11:42:15;18.50;99.90
16958;DHT22;8595;52.542;11.974;2023-04-24T11:44:42;19.00;99.90
16958;DHT22;8595;52.542;11.974;2023-04-24T11:47:12;19.50;99.90
16958;DHT22;8595;52.542;11.974;2023-04-24T11:49:40;19.70;99.90
16958;DHT22;8595;52.542;11.974;2023-04-24T11:52:06;19.70;99.90
16958;DHT22;8595;52.542;11.974;2023-04-24T11:54:34;19.40;99.90
16958;DHT22;8595;52.542;11.974;2023-04-24T11:57:04;19.00;99.90
16958;DHT22;8595;52.542;11.974;2023-04-24T11:59:35;18.60;99.90
16958;DHT22;8595;52.542;11.974;2023-04-24T12:02:02;18.50;99.90
16958;DHT22;8595;52.542;11.974;2023-04-24T12:04:40;19.10;99.90
16958;DHT22;8595;52.542;11.974;2023-04-24T12:07:07;19.50;99.90
16958;DHT22;8595;52.542;11.974;2023-04-24T12:09:42;19.30;99.90
16958;DHT22;8595;52.542;11.974;2023-04-24T12:12:11;19.00;99.90
16958;DHT22;8595;52.542;11.974;2023-04-24T12:14:58;19.40;99.90
16958;DHT22;8595;52.542;11.974;2023-04-24T12:17:27;20.30;99.90
16958;DHT22;8595;52.542;11.974;2023-04-24T12:20:01;20.60;99.90
16958;DHT22;8595;52.542;11.974;2023-04-24T12:22:28;20.00;99.90
16958;DHT22;8595;52.542;11.974;2023-04-24T12:24:56;19.40;99.90
16958;DHT22;8595;52.542;11.974;2023-04-24T12:27:24;18.70;99.90
16958;DHT22;8595;52.542;11.974;2023-04-24T12:29:52;18.60;99.90
16958;DHT22;8595;52.542;11.974;2023-04-24T12:32:20;18.50;99.90
16958;DHT22;8595;52.542;11.974;2023-04-24T12:34:47;18.30;99.90
16958;DHT22;8595;52.542;11.974;2023-04-24T12:37:18;17.90;99.90
16958;DHT22;8595;52.542;11.974;2023-04-24T12:39:58;17.90;99.90
16958;DHT22;8595;52.542;11.974;2023-04-24T12:42:26;18.20;99.90
16958;DHT22;8595;52.542;11.974;2023-04-24T12:44:56;18.90;99.90
16958;DHT22;8595;52.542;11.974;2023-04-24T12:47:24;19.30;99.90
16958;DHT22;8595;52.542;11.974;2023-04-24T12:49:51;19.30;99.90
16958;DHT22;8595;52.542;11.974;2023-04-24T12:52:19;19.30;99.90
16958;DHT22;8595;52.542;11.974;2023-04-24T12:54:47;19.20;99.90
16958;DHT22;8595;52.542;11.974;2023-04-24T12:57:15;19.20;99.90
16958;DHT22;8595;52.542;11.974;2023-04-24T12:59:41;19.30;99.90
16958;DHT22;8595;52.542;11.974;2023-04-24T13:02:09;19.20;99.90
16958;DHT22;8595;52.542;11.974;2023-04-24T13:04:36;18.60;99.90
16958;DHT22;8595;52.542;11.974;2023-04-24T13:07:04;18.60;99.90
16958;DHT22;8595;52.542;11.974;2023-04-24T13:09:34;18.20;99.90
16958;DHT22;8595;52.542;11.974;2023-04-24T13:12:01;18.00;99.90
16958;DHT22;8595;52.542;11.974;2023-04-24T13:14:28;17.90;99.90
16958;DHT22;8595;52.542;11.974;2023-04-24T13:16:55;18.20;99.90
16958;DHT22;8595;52.542;11.974;2023-04-24T13:19:23;18.90;99.90
16958;DHT22;8595;52.542;11.974;2023-04-24T13:21:50;19.70;99.90
16958;DHT22;8595;52.542;11.974;2023-04-24T13:24:18;19.90;99.90
16958;DHT22;8595;52.542;11.974;2023-04-24T13:26:46;19.60;99.90
16958;DHT22;8595;52.542;11.974;2023-04-24T13:29:13;19.10;99.90
16958;DHT22;8595;52.542;11.974;2023-04-24T13:31:40;18.70;99.90
16958;DHT22;8595;52.542;11.974;2023-04-24T13:34:07;18.60;99.90
16958;DHT22;8595;52.542;11.974;2023-04-24T13:36:33;18.50;99.90
16958;DHT22;8595;52.542;11.974;2023-04-24T13:39:01;18.40;99.90
16958;DHT22;8595;52.542;11.974;2023-04-24T13:41:29;19.50;99.90
16958;DHT22;8595;52.542;11.974;2023-04-24T13:43:57;19.90;99.90
16958;DHT22;8595;52.542;11.974;2023-04-24T13:46:24;19.60;99.90
16958;DHT22;8595;52.542;11.974;2023-04-24T13:48:51;19.50;99.90
16958;DHT22;8595;52.542;11.974;2023-04-24T13:51:18;19.00;99.90
16958;DHT22;8595;52.542;11.974;2023-04-24T13:53:44;18.50;99.90
16958;DHT22;8595;52.542;11.974;2023-04-24T13:56:11;18.30;99.90
16958;DHT22;8595;52.542;11.974;2023-04-24T13:58:39;17.90;99.90
16958;DHT22;8595;52.542;11.974;2023-04-24T14:01:08;17.90;99.90
16958;DHT22;8595;52.542;11.974;2023-04-24T14:03:34;17.90;99.90
16958;DHT22;8595;52.542;11.974;2023-04-24T14:06:03;17.80;99.90
16958;DHT22;8595;52.542;11.974;2023-04-24T14:08:30;17.70;99.90
16958;DHT22;8595;52.542;11.974;2023-04-24T14:10:57;17.50;99.90
16958;DHT22;8595;52.542;11.974;2023-04-24T14:13:24;17.20;99.90
16958;DHT22;8595;52.542;11.974;2023-04-24T14:15:51;16.90;99.90
16958;DHT22;8595;52.542;11.974;2023-04-24T14:18:20;16.90;99.90
16958;DHT22;8595;52.542;11.974;2023-04-24T14:20:46;17.00;99.90
16958;DHT22;8595;52.542;11.974;2023-04-24T14:23:13;16.90;99.90
16958;DHT22;8595;52.542;11.974;2023-04-24T14:25:40;17.00;99.90
16958;DHT22;8595;52.542;11.974;2023-04-24T14:28:07;16.90;99.90
16958;DHT22;8595;52.542;11.974;2023-04-24T14:30:33;16.80;99.90
16958;DHT22;8595;52.542;11.974;2023-04-24T14:33:03;16.70;99.90
16958;DHT22;8595;52.542;11.974;2023-04-24T14:35:32;16.50;99.90
16958;DHT22;8595;52.542;11.974;2023-04-24T14:38:00;16.20;99.90
16958;DHT22;8595;52.542;11.974;2023-04-24T14:40:27;16.20;99.90
16958;DHT22;8595;52.542;11.974;2023-04-24T14:42:55;16.00;99.90
16958;DHT22;8595;52.542;11.974;2023-04-24T14:45:22;15.90;99.90
16958;DHT22;8595;52.542;11.974;2023-04-24T14:47:49;15.80;99.90
16958;DHT22;8595;52.542;11.974;2023-04-24T14:50:16;15.60;99.90
16958;DHT22;8595;52.542;11.974;2023-04-24T14:52:45;14.90;99.90
16958;DHT22;8595;52.542;11.974;2023-04-24T14:55:12;14.20;99.90
16958;DHT22;8595;52.542;11.974;2023-04-24T14:57:40;13.90;99.90
16958;DHT22;8595;52.542;11.974;2023-04-24T15:00:07;13.60;99.90
16958;DHT22;8595;52.542;11.974;2023-04-24T15:02:35;13.40;99.90
16958;DHT22;8595;52.542;11.974;2023-04-24T15:05:06;13.30;99.90
16958;DHT22;8595;52.542;11.974;2023-04-24T15:07:33;13.40;99.90
16958;DHT22;8595;52.542;11.974;2023-04-24T15:10:02;13.40;99.90
16958;DHT22;8595;52.542;11.974;2023-04-24T15:12:29;13.40;99.90
16958;DHT22;8595;52.542;11.974;2023-04-24T15:14:57;13.50;99.90
16958;DHT22;8595;52.542;11.974;2023-04-24T15:17:25;13.70;99.90
16958;DHT22;8595;52.542;11.974;2023-04-24T15:19:52;13.90;99.90
16958;DHT22;8595;52.542;11.974;2023-04-24T15:22:20;14.00;99.90
16958;DHT22;8595;52.542;11.974;2023-04-24T15:24:46;13.90;99.90
16958;DHT22;8595;52.542;11.974;2023-04-24T15:27:14;13.90;99.90
16958;DHT22;8595;52.542;11.974;2023-04-24T15:29:41;13.90;99.90
16958;DHT22;8595;52.542;11.974;2023-04-24T15:32:08;13.80;99.90
16958;DHT22;8595;52.542;11.974;2023-04-24T15:34:36;13.90;99.90
16958;DHT22;8595;52.542;11.974;2023-04-24T15:37:02;13.90;99.90